createdAt,value
2023-04-24T00:00:22.708Z,11.52
2023-04-24T00:03:10.503Z,11.52
2023-04-24T00:06:00.070Z,11.46
2023-04-24T00:08:47.564Z,11.43
2023-04-24T00:11:36.451Z,11.42
2023-04-24T00:14:24.286Z,11.35
2023-04-24T00:17:11.991Z,11.27
2023-04-24T00:20:00.206Z,11.12
2023-04-24T00:22:48.349Z,11.07
2023-04-24T00:25:35.894Z,10.95
2023-04-24T00:28:24.862Z,10.98
2023-04-24T00:31:12.647Z,11.07
2023-04-24T00:34:00.701Z,11.02
2023-04-24T00:36:50.066Z,10.95
2023-04-24T00:39:37.613Z,10.86
2023-04-24T00:42:25.141Z,10.84
2023-04-24T00:45:14.833Z,10.76
2023-04-24T00:48:03.667Z,10.81
2023-04-24T00:50:51.413Z,10.82
2023-04-24T00:53:38.988Z,10.87
2023-04-24T00:56:26.697Z,10.74
2023-04-24T00:59:15.474Z,10.66
2023-04-24T01:02:04.826Z,10.71
2023-04-24T01:04:53.754Z,10.74
2023-04-24T01:07:45.081Z,10.74
2023-04-24T01:10:35.387Z,10.71
2023-04-24T01:13:23.132Z,10.71
2023-04-24T01:16:10.923Z,10.71
2023-04-24T01:19:00.294Z,10.69
2023-04-24T01:21:52.809Z,10.67
2023-04-24T01:24:42.324Z,10.66
2023-04-24T01:27:32.078Z,10.65
2023-04-24T01:30:20.112Z,10.63
2023-04-24T01:33:07.748Z,10.72
2023-04-24T01:35:56.648Z,10.52
2023-04-24T01:38:44.117Z,10.55
2023-04-24T01:41:33.556Z,10.58
2023-04-24T01:44:21.537Z,10.50
2023-04-24T01:47:09.580Z,10.55
2023-04-24T01:49:56.965Z,10.56
2023-04-24T01:52:44.530Z,10.52
2023-04-24T01:55:32.271Z,10.43
2023-04-24T01:58:21.211Z,10.38
2023-04-24T02:01:09.439Z,10.39
2023-04-24T02:03:57.911Z,10.40
2023-04-24T02:06:45.638Z,10.45
2023-04-24T02:09:33.421Z,10.46
2023-04-24T02:12:21.754Z,10.46
2023-04-24T02:15:12.686Z,10.47
2023-04-24T02:18:00.367Z,10.48
2023-04-24T02:20:48.351Z,10.51
2023-04-24T02:23:36.358Z,10.47
2023-04-24T02:26:24.004Z,10.46
2023-04-24T02:29:11.593Z,10.45
2023-04-24T02:32:03.400Z,10.41
2023-04-24T02:34:50.904Z,10.38
2023-04-24T02:37:38.303Z,10.37
2023-04-24T02:40:25.801Z,10.38
2023-04-24T02:43:13.275Z,10.36
2023-04-24T02:46:01.292Z,10.35
2023-04-24T02:48:50.608Z,10.34
2023-04-24T02:51:42.024Z,10.32
2023-04-24T02:54:29.942Z,10.32
2023-04-24T02:57:17.361Z,10.29
2023-04-24T03:00:08.239Z,10.28
2023-04-24T03:02:55.977Z,10.27
2023-04-24T03:05:45.618Z,10.23
2023-04-24T03:08:33.148Z,10.21
2023-04-24T03:11:20.822Z,10.20
2023-04-24T03:14:08.322Z,10.18
2023-04-24T03:16:57.578Z,10.14
2023-04-24T03:19:45.587Z,10.10
2023-04-24T03:22:35.000Z,10.06
2023-04-24T03:25:22.692Z,10.01
2023-04-24T03:28:10.518Z,9.99
2023-04-24T03:30:58.016Z,9.96
2023-04-24T03:33:45.417Z,9.96
2023-04-24T03:36:33.103Z,9.87
2023-04-24T03:39:22.188Z,9.81
2023-04-24T03:42:10.103Z,9.77
2023-04-24T03:44:57.502Z,9.79
2023-04-24T03:47:45.151Z,9.78
2023-04-24T03:50:32.631Z,9.78
2023-04-24T03:53:20.768Z,9.75
2023-04-24T03:56:10.152Z,9.77
2023-04-24T03:58:57.804Z,9.70
2023-04-24T04:01:46.421Z,9.69
2023-04-24T04:04:34.575Z,9.67
2023-04-24T04:07:22.279Z,9.65
2023-04-24T04:10:10.699Z,9.65
2023-04-24T04:13:00.135Z,9.61
2023-04-24T04:15:48.017Z,9.57
2023-04-24T04:18:36.074Z,9.54
2023-04-24T04:21:24.021Z,9.52
2023-04-24T04:24:11.578Z,9.47
2023-04-24T04:26:59.352Z,9.46
2023-04-24T04:29:48.077Z,9.43
2023-04-24T04:32:36.325Z,9.39
2023-04-24T04:35:23.906Z,9.39
2023-04-24T04:38:11.868Z,9.39
2023-04-24T04:40:59.726Z,9.41
2023-04-24T04:43:47.496Z,9.35
2023-04-24T04:46:38.212Z,9.43
2023-04-24T04:49:26.543Z,9.32
2023-04-24T04:52:14.323Z,9.40
2023-04-24T04:55:01.818Z,9.28
2023-04-24T04:57:49.616Z,9.37
2023-04-24T05:00:38.374Z,9.34
2023-04-24T05:03:27.644Z,9.37
2023-04-24T05:06:16.071Z,9.37
2023-04-24T05:09:04.413Z,9.32
2023-04-24T05:11:51.981Z,9.33
2023-04-24T05:14:39.733Z,9.46
2023-04-24T05:17:27.596Z,9.46
2023-04-24T05:20:16.634Z,9.45
2023-04-24T05:23:04.314Z,9.45
2023-04-24T05:25:51.983Z,9.46
2023-04-24T05:28:39.735Z,9.51
2023-04-24T05:31:27.435Z,9.58
2023-04-24T05:34:15.166Z,9.49
2023-04-24T05:37:04.465Z,9.61
2023-04-24T05:39:52.115Z,9.69
2023-04-24T05:42:39.484Z,9.80
2023-04-24T05:45:27.991Z,9.83
2023-04-24T05:48:15.611Z,9.88
2023-04-24T05:51:03.025Z,9.93
2023-04-24T05:53:51.785Z,10.00
2023-04-24T05:56:41.246Z,10.00
2023-04-24T05:59:30.531Z,10.05
2023-04-24T06:02:18.519Z,10.15
2023-04-24T06:05:07.196Z,10.25
2023-04-24T06:07:55.374Z,10.25
2023-04-24T06:10:44.216Z,10.33
2023-04-24T06:13:31.933Z,10.35
2023-04-24T06:16:19.863Z,10.41
2023-04-24T06:19:07.536Z,10.33
2023-04-24T06:21:54.968Z,10.40
2023-04-24T06:24:42.630Z,10.48
2023-04-24T06:27:31.730Z,10.56
2023-04-24T06:30:19.257Z,10.64
2023-04-24T06:33:19.641Z,10.69
2023-04-24T06:36:08.699Z,10.72
2023-04-24T06:38:56.617Z,10.79
2023-04-24T06:41:44.134Z,10.84
2023-04-24T06:44:38.683Z,10.87
2023-04-24T06:47:26.142Z,10.93
2023-04-24T06:50:13.829Z,10.98
2023-04-24T06:53:01.676Z,11.02
2023-04-24T06:55:49.781Z,11.04
2023-04-24T06:58:37.336Z,11.09
2023-04-24T07:01:26.500Z,11.14
2023-04-24T07:04:14.653Z,11.18
2023-04-24T07:07:02.619Z,11.25
2023-04-24T07:09:50.073Z,11.30
2023-04-24T07:12:38.482Z,11.39
2023-04-24T07:15:26.257Z,11.46
2023-04-24T07:18:15.371Z,11.56
2023-04-24T07:21:02.905Z,11.67
2023-04-24T07:23:50.430Z,11.77
2023-04-24T07:26:38.052Z,11.91
2023-04-24T07:29:25.810Z,11.98
2023-04-24T07:32:13.372Z,11.91
2023-04-24T07:35:02.336Z,11.99
2023-04-24T07:37:50.214Z,12.08
2023-04-24T07:40:37.942Z,12.13
2023-04-24T07:43:25.687Z,12.09
2023-04-24T07:46:13.441Z,12.11
2023-04-24T07:49:12.364Z,12.18
2023-04-24T07:52:03.569Z,12.26
2023-04-24T07:54:51.765Z,12.42
2023-04-24T07:57:39.809Z,12.74
2023-04-24T08:00:27.558Z,13.00
2023-04-24T08:03:15.813Z,13.37
2023-04-24T08:06:03.890Z,13.93
2023-04-24T08:08:53.268Z,14.38
2023-04-24T08:11:40.871Z,14.55
2023-04-24T08:14:28.286Z,14.68
2023-04-24T08:17:15.802Z,15.05
2023-04-24T08:20:03.623Z,15.12
2023-04-24T08:22:51.342Z,15.43
2023-04-24T08:25:40.375Z,15.37
2023-04-24T08:28:28.184Z,15.52
2023-04-24T08:31:15.943Z,15.40
2023-04-24T08:34:03.538Z,15.62
2023-04-24T08:36:51.750Z,15.45
2023-04-24T08:39:39.503Z,15.40
2023-04-24T08:42:34.237Z,15.36
2023-04-24T08:45:22.020Z,15.23
2023-04-24T08:48:23.440Z,15.18
2023-04-24T08:51:16.156Z,15.25
2023-04-24T08:54:05.165Z,15.21
2023-04-24T08:57:01.953Z,15.16
2023-04-24T08:59:52.584Z,15.13
2023-04-24T09:02:45.264Z,15.25
2023-04-24T09:05:33.138Z,15.41
2023-04-24T09:08:21.968Z,15.44
2023-04-24T09:11:11.481Z,15.50
2023-04-24T09:13:59.999Z,15.42
2023-04-24T09:16:50.357Z,15.63
2023-04-24T09:19:37.796Z,15.75
2023-04-24T09:22:26.018Z,15.66
2023-04-24T09:25:13.741Z,15.89
2023-04-24T09:28:04.089Z,16.01
2023-04-24T09:31:05.736Z,16.07
2023-04-24T09:34:01.753Z,16.36
2023-04-24T09:36:50.355Z,16.67
2023-04-24T09:39:37.888Z,16.86
2023-04-24T09:42:31.515Z,16.85
2023-04-24T09:45:19.555Z,17.05
2023-04-24T09:48:08.815Z,16.84
2023-04-24T09:50:57.913Z,16.63
2023-04-24T09:53:48.937Z,16.69
2023-04-24T09:56:40.404Z,16.48
2023-04-24T09:59:29.492Z,16.56
2023-04-24T10:02:22.160Z,16.61
2023-04-24T10:05:13.948Z,16.68
2023-04-24T10:08:10.551Z,16.74
2023-04-24T10:10:58.229Z,16.98
2023-04-24T10:13:46.265Z,17.45
2023-04-24T10:16:34.585Z,17.64
2023-04-24T10:19:23.939Z,17.83
2023-04-24T10:22:12.756Z,17.70
2023-04-24T10:25:02.134Z,17.72
2023-04-24T10:27:51.753Z,17.52
2023-04-24T10:30:39.320Z,17.52
2023-04-24T10:33:28.820Z,17.30
2023-04-24T10:36:18.970Z,17.16
2023-04-24T10:39:13.512Z,16.95
2023-04-24T10:42:03.012Z,16.86
2023-04-24T10:44:51.060Z,16.96
2023-04-24T10:47:43.265Z,16.88
2023-04-24T10:50:44.423Z,16.75
2023-04-24T10:53:33.287Z,16.78
2023-04-24T10:56:23.417Z,16.85
2023-04-24T10:59:12.574Z,16.75
2023-04-24T11:02:00.721Z,16.74
2023-04-24T11:04:53.224Z,16.71
2023-04-24T11:08:16.927Z,16.45
2023-04-24T11:11:12.357Z,16.26
2023-04-24T11:14:12.173Z,16.41
2023-04-24T11:17:00.801Z,16.55
2023-04-24T11:19:54.575Z,16.74
2023-04-24T11:22:43.267Z,17.12
2023-04-24T11:25:33.850Z,16.91
2023-04-24T11:28:21.656Z,17.37
2023-04-24T11:31:42.051Z,17.41
2023-04-24T11:34:29.655Z,17.40
2023-04-24T11:37:18.127Z,17.39
2023-04-24T11:40:08.805Z,16.68
2023-04-24T11:42:57.186Z,16.49
2023-04-24T11:45:51.041Z,16.22
2023-04-24T11:48:41.262Z,16.24
2023-04-24T11:51:33.818Z,16.26
2023-04-24T11:54:27.606Z,16.07
2023-04-24T11:57:15.084Z,16.03
2023-04-24T12:00:04.563Z,15.99
2023-04-24T12:02:54.118Z,15.84
2023-04-24T12:05:43.293Z,15.96
2023-04-24T12:08:32.066Z,16.08
2023-04-24T12:11:20.244Z,16.21
2023-04-24T12:14:13.429Z,16.36
2023-04-24T12:17:01.325Z,16.65
2023-04-24T12:19:51.597Z,16.76
2023-04-24T12:22:48.748Z,17.09
2023-04-24T12:25:37.179Z,17.13
2023-04-24T12:28:26.269Z,17.30
2023-04-24T12:31:14.125Z,17.20
2023-04-24T12:34:02.267Z,17.14
2023-04-24T12:36:50.762Z,16.96
2023-04-24T12:39:40.032Z,17.01
2023-04-24T12:42:29.347Z,16.92
2023-04-24T12:45:18.912Z,16.87
2023-04-24T12:48:07.162Z,16.82
2023-04-24T12:50:54.939Z,16.81
2023-04-24T12:53:42.736Z,16.76
2023-04-24T12:56:32.120Z,16.75
2023-04-24T12:59:19.838Z,16.84
2023-04-24T13:02:07.960Z,16.94
2023-04-24T13:04:55.875Z,17.11
2023-04-24T13:07:43.521Z,17.16
2023-04-24T13:10:31.683Z,17.27
2023-04-24T13:13:21.134Z,17.32
2023-04-24T13:16:08.737Z,17.46
2023-04-24T13:18:56.445Z,17.49
2023-04-24T13:21:43.986Z,17.78
2023-04-24T13:24:32.203Z,17.90
2023-04-24T13:27:22.369Z,17.87
2023-04-24T13:30:13.498Z,18.05
2023-04-24T13:33:01.490Z,18.22
2023-04-24T13:35:49.363Z,17.97
2023-04-24T13:38:37.200Z,17.92
2023-04-24T13:41:25.259Z,18.09
2023-04-24T13:44:12.870Z,18.18
2023-04-24T13:47:01.907Z,18.42
2023-04-24T13:49:49.312Z,18.35
2023-04-24T13:52:36.950Z,18.48
2023-04-24T13:55:25.009Z,18.66
2023-04-24T13:58:12.907Z,18.77
2023-04-24T14:01:00.452Z,19.03
2023-04-24T14:03:49.653Z,18.98
2023-04-24T14:06:37.769Z,19.14
2023-04-24T14:09:25.398Z,19.32
2023-04-24T14:12:13.694Z,19.61
2023-04-24T14:15:02.506Z,19.57
2023-04-24T14:17:51.053Z,20.04
2023-04-24T14:20:40.065Z,20.09
2023-04-24T14:23:28.007Z,20.04
2023-04-24T14:26:15.690Z,19.94
2023-04-24T14:29:14.101Z,19.87
2023-04-24T14:32:02.783Z,19.73
2023-04-24T14:34:50.536Z,18.96
2023-04-24T14:37:42.143Z,19.29
2023-04-24T14:40:56.118Z,19.11
2023-04-24T14:43:40.114Z,18.90
2023-04-24T14:46:28.174Z,18.60
2023-04-24T14:49:20.850Z,18.30
2023-04-24T14:52:08.272Z,18.14
2023-04-24T14:54:57.184Z,17.97
2023-04-24T14:57:45.100Z,18.06
2023-04-24T15:00:33.460Z,18.12
2023-04-24T15:03:24.230Z,18.19
2023-04-24T15:06:11.922Z,18.24
2023-04-24T15:08:59.454Z,18.47
2023-04-24T15:11:48.792Z,18.46
2023-04-24T15:14:36.643Z,18.52
2023-04-24T15:17:24.198Z,18.56
2023-04-24T15:20:12.249Z,18.22
2023-04-24T15:23:00.812Z,18.18
2023-04-24T15:25:48.761Z,18.43
2023-04-24T15:28:37.546Z,18.49
2023-04-24T15:31:25.118Z,18.45
2023-04-24T15:34:12.739Z,18.28
2023-04-24T15:37:00.557Z,18.13
2023-04-24T15:39:48.477Z,17.89
2023-04-24T15:42:36.575Z,17.64
2023-04-24T15:45:26.657Z,17.44
2023-04-24T15:48:14.398Z,17.20
2023-04-24T15:51:02.401Z,17.05
2023-04-24T15:53:50.042Z,16.94
2023-04-24T15:56:38.039Z,16.74
2023-04-24T15:59:25.944Z,16.30
2023-04-24T16:02:19.009Z,16.28
2023-04-24T16:05:08.839Z,16.28
2023-04-24T16:07:57.589Z,16.15
2023-04-24T16:10:52.789Z,16.01
2023-04-24T16:13:40.482Z,15.89
2023-04-24T16:16:29.067Z,15.71
2023-04-24T16:19:19.679Z,15.57
2023-04-24T16:22:07.293Z,15.64
2023-04-24T16:24:55.083Z,15.51
2023-04-24T16:27:42.748Z,15.56
2023-04-24T16:30:30.604Z,15.81
2023-04-24T16:33:18.862Z,16.00
2023-04-24T16:36:08.963Z,16.18
2023-04-24T16:38:56.593Z,16.22
2023-04-24T16:41:47.430Z,16.23
2023-04-24T16:44:34.961Z,16.19
2023-04-24T16:47:22.715Z,16.27
2023-04-24T16:50:12.825Z,16.31
2023-04-24T16:53:05.373Z,16.31
2023-04-24T16:55:53.180Z,16.55
2023-04-24T16:58:41.195Z,16.72
2023-04-24T17:01:32.208Z,16.78
2023-04-24T17:04:21.226Z,16.79
2023-04-24T17:07:09.101Z,16.74
2023-04-24T17:09:58.221Z,16.53
2023-04-24T17:12:46.231Z,16.28
2023-04-24T17:15:35.347Z,16.08
2023-04-24T17:18:24.321Z,15.90
2023-04-24T17:21:14.382Z,15.76
2023-04-24T17:24:17.329Z,15.60
2023-04-24T17:27:14.940Z,15.37
2023-04-24T17:30:03.592Z,15.29
2023-04-24T17:32:55.124Z,15.16
2023-04-24T17:35:45.484Z,15.02
2023-04-24T17:38:33.424Z,14.91
2023-04-24T17:41:21.735Z,14.77
2023-04-24T17:44:11.148Z,14.64
2023-04-24T17:46:58.811Z,14.48
2023-04-24T17:49:46.390Z,14.32
2023-04-24T17:52:34.978Z,14.02
2023-04-24T17:55:22.572Z,13.94
2023-04-24T17:58:10.578Z,13.81
2023-04-24T18:00:59.963Z,13.68
2023-04-24T18:03:47.581Z,13.57
2023-04-24T18:06:35.410Z,13.40
2023-04-24T18:09:22.918Z,13.31
2023-04-24T18:12:10.642Z,13.15
2023-04-24T18:15:12.993Z,13.03
2023-04-24T18:18:03.899Z,12.98
2023-04-24T18:20:52.034Z,12.87
2023-04-24T18:23:39.893Z,12.78
2023-04-24T18:26:27.360Z,12.64
2023-04-24T18:29:15.219Z,12.53
2023-04-24T18:32:04.905Z,12.43
2023-04-24T18:34:54.145Z,12.30
2023-04-24T18:37:41.967Z,12.13
2023-04-24T18:40:29.490Z,12.02
2023-04-24T18:43:17.063Z,11.87
2023-04-24T18:46:04.657Z,11.78
2023-04-24T18:48:52.490Z,11.65
2023-04-24T18:51:53.021Z,11.57
2023-04-24T18:54:41.251Z,11.42
2023-04-24T18:57:29.818Z,11.38
2023-04-24T19:00:18.778Z,11.30
2023-04-24T19:03:08.692Z,11.22
2023-04-24T19:05:56.733Z,11.10
2023-04-24T19:08:47.481Z,11.01
2023-04-24T19:11:35.723Z,10.90
2023-04-24T19:14:23.660Z,10.84
2023-04-24T19:17:11.232Z,10.74
2023-04-24T19:19:58.737Z,10.65
2023-04-24T19:22:47.464Z,10.57
2023-04-24T19:25:37.101Z,10.47
2023-04-24T19:28:24.497Z,10.43
2023-04-24T19:31:11.989Z,10.34
2023-04-24T19:33:55.171Z,10.25
2023-04-24T19:36:43.678Z,10.22
2023-04-24T19:39:38.367Z,10.15
2023-04-24T19:42:42.584Z,10.05
2023-04-24T19:45:35.174Z,9.99
2023-04-24T19:48:30.891Z,9.93
2023-04-24T19:51:22.340Z,9.84
2023-04-24T19:54:10.655Z,9.83
2023-04-24T19:56:58.697Z,9.73
2023-04-24T19:59:48.124Z,9.59
2023-04-24T20:02:36.244Z,9.55
2023-04-24T20:05:24.060Z,9.47
2023-04-24T20:08:14.496Z,9.46
2023-04-24T20:11:12.120Z,9.43
2023-04-24T20:14:03.579Z,9.35
2023-04-24T20:16:54.284Z,9.20
2023-04-24T20:19:45.645Z,9.17
2023-04-24T20:22:38.728Z,9.09
2023-04-24T20:25:26.908Z,9.06
2023-04-24T20:28:17.198Z,9.00
2023-04-24T20:31:06.977Z,8.92
2023-04-24T20:33:59.325Z,8.86
2023-04-24T20:36:49.927Z,8.88
2023-04-24T20:39:44.392Z,8.82
2023-04-24T20:42:32.530Z,8.78
2023-04-24T20:45:20.269Z,8.73
2023-04-24T20:48:09.820Z,8.74
2023-04-24T20:50:58.941Z,8.61
2023-04-24T20:53:49.263Z,8.55
2023-04-24T20:56:36.960Z,8.60
2023-04-24T20:59:24.865Z,8.54
2023-04-24T21:02:12.729Z,8.51
2023-04-24T21:05:00.351Z,8.56
2023-04-24T21:07:51.419Z,8.48
2023-04-24T21:10:39.470Z,8.43
2023-04-24T21:13:27.096Z,8.42
2023-04-24T21:16:14.722Z,8.42
2023-04-24T21:19:02.427Z,8.39
2023-04-24T21:21:49.849Z,8.39
2023-04-24T21:24:38.867Z,8.40
2023-04-24T21:27:26.668Z,8.37
2023-04-24T21:30:14.698Z,8.37
2023-04-24T21:33:02.391Z,8.36
2023-04-24T21:35:50.545Z,8.34
2023-04-24T21:38:39.825Z,8.30
2023-04-24T21:41:28.877Z,8.31
2023-04-24T21:44:16.626Z,8.28
2023-04-24T21:47:04.614Z,8.27
2023-04-24T21:49:52.673Z,8.30
2023-04-24T21:52:40.582Z,8.26
2023-04-24T21:55:28.434Z,8.19
2023-04-24T21:58:17.592Z,8.19
2023-04-24T22:01:05.838Z,8.20
2023-04-24T22:03:53.996Z,8.20
2023-04-24T22:06:42.138Z,8.24
2023-04-24T22:09:29.670Z,8.21
2023-04-24T22:12:17.665Z,8.22
2023-04-24T22:15:08.572Z,8.21
2023-04-24T22:17:57.585Z,8.26
2023-04-24T22:20:46.503Z,8.25
2023-04-24T22:23:34.580Z,8.22
2023-04-24T22:26:22.163Z,8.23
2023-04-24T22:29:09.633Z,8.27
2023-04-24T22:31:58.761Z,8.28
2023-04-24T22:34:46.706Z,8.34
2023-04-24T22:37:34.521Z,8.36
2023-04-24T22:40:22.460Z,8.39
2023-04-24T22:43:10.510Z,8.42
2023-04-24T22:45:59.424Z,8.42
2023-04-24T22:48:49.716Z,8.46
2023-04-24T22:51:38.184Z,8.45
2023-04-24T22:54:26.459Z,8.45
2023-04-24T22:57:15.047Z,8.45
2023-04-24T23:00:02.693Z,8.46
2023-04-24T23:02:50.787Z,8.48
2023-04-24T23:05:39.803Z,8.46
2023-04-24T23:08:27.146Z,8.47
2023-04-24T23:11:14.774Z,8.47
2023-04-24T23:14:03.839Z,8.48
2023-04-24T23:16:51.792Z,8.44
2023-04-24T23:19:39.599Z,8.45
2023-04-24T23:22:29.119Z,8.45
2023-04-24T23:25:17.053Z,8.46
2023-04-24T23:28:04.833Z,8.45
2023-04-24T23:30:52.311Z,8.48
2023-04-24T23:33:39.884Z,8.49
2023-04-24T23:36:27.737Z,8.50
2023-04-24T23:39:16.849Z,8.49
2023-04-24T23:42:04.409Z,8.48
2023-04-24T23:44:52.170Z,8.48
2023-04-24T23:47:40.024Z,8.46
2023-04-24T23:50:28.205Z,8.47
2023-04-24T23:53:16.867Z,8.45
2023-04-24T23:56:06.063Z,8.42
2023-04-24T23:58:53.872Z,8.40
